Forside
METAR-TAF:

METAR-TAF

Lufthavne :

Holland, Michigan, USA

Breddekreds: 42-44-46N, længdekreds: 086-05-48W, højde: 209 m

Aktuelle vejr

Denne rapport blev lavet for 1 time og 11 minutter siden, kl. 06:53 UTC
Vind 13 kt fra sydvest med vindstød på up til 21 kt
Temperatur 7°C
Fugtighed 70%
Tryk 1016 hPa
Sigt: 16.1 km
skyfri

METAR: KBIV 290653Z AUTO 23013G21KT 10SM CLR 07/02 A2999 RMK AO2 PK WND 22026/0642 SLP159 T00670017

Tid: 03:04 (08:04 UTC)


TAF: fraværende

Vejrobservationer og prognoser fra mere end 4000 lufthavne (METAR og TAF).

De gule og røde prikker repræsenterer de meteorologiske stationer.

Flyt musen over at se navnet på stationen.

Så klik over at se vejr observationer og prognoser.

At skifte det kort: Klik på de grønne knapper med et sort kors for at zoome ind; på den grønne knap med en bindestreg for at zoome ud; eller på de grønne pile for tilstødende kort.


METAR-TAF: